178-й км

Карта отелей и гостиниц, располагающихся рядом с аэропортом 178-й км :

178-й км Ханты-Мансийский автономный округ - Югра 62° 59' 27.6" N, 60° 57' 59.2812" E
178-й км Ханты-Мансийский автономный округ - Югра 62° 59' 27.6" N, 60° 57' 59.2812" E
Код аэродрома ИКАО
HB3E
Код аэродрома RU
ХБ3Е
Координаты
N62.99100° E060.96647°
Превышение над уровнем моря
162
Основная полоса
15/33
Курс магнитный
147,6/327,6
Длина основной ВПП
20
Ширина основной ВПП
20
Покрытие основной ВПП
Твёрдое
Освещение ВПП
Нет
Тип: 
Вертодром
Класс аэродрома: 
Принадлежность: 
ГА
Статус: 
Действующий
Сайт: 
E-mail аэродрома: 
Страна: 
Россия
Регион: 
Ханты-Мансийский автономный округ - Югра
Город: 
Дополнительная информация: 


Найти трансфер

С помощью этой формы Вы можете найти трансфер из аэропорта 178-й км в город, аэропорт или вокзал:

Погода в аэропортах:

Авиационная погода в Пулково

Регион: 
Погода METAR: 
ULLI 291030Z 30004MPS 9999 -SHRA SCT021CB BKN040 13/10 Q1006 R28L/290050 R28R/190055 NOSIG
Время наблюдения
2022-05-29T10:30:00Z
Температура C
13.0
Точка росы
10.0
Направление ветра
300
Скорость ветра (узлы)
8
Метео видимость
6.21
Облачность
SCT
BKN
Нижняя граница облачности (футы)
2100
4000
Явления погоды
-SHRA
Условия полета
VFR
Аэропорт подробнее: 
SCT – разбросанная отдельная облачность; BKN – значительная (рассеянная, разорванная) облачность;
-SHRA - слабый ливневой дождь;

Авиационная погода в Игнатьево

Регион: 
Погода METAR: 
UHBB 291030Z 09002MPS 9000 -SHRA BKN026CB 12/12 Q0996 R36/290250 NOSIG RMK QFE730/0973
Время наблюдения
2022-05-29T10:30:00Z
Температура C
12.0
Точка росы
12.0
Направление ветра
90
Скорость ветра (узлы)
4
Метео видимость
5.59
Облачность
BKN
Нижняя граница облачности (футы)
2600
Явления погоды
-SHRA
Условия полета
MVFR
Аэропорт подробнее: 
BKN – значительная (рассеянная, разорванная) облачность;
-SHRA - слабый ливневой дождь;

Авиационная погода в Куопио

Регион: 
Погода METAR: 
EFKU 291020Z AUTO 21003KT 050V140 9999 VCSH FEW033 //////CB 15/10 Q1004
Время наблюдения
2022-05-29T10:20:00Z
Температура C
15.0
Точка росы
10.0
Направление ветра
210
Скорость ветра (узлы)
3
Метео видимость
6.21
Облачность
FEW
Нижняя граница облачности (футы)
3300
Явления погоды
VCSH
Условия полета
VFR
FEW – незначительная облачность;

Авиационная погода в Ханты-Мансийске

Регион: 
Погода METAR: 
USHH 291030Z 24009G15MPS 7000 -TSRA SCT036CB 12/12 Q1005 R24/290055 TEMPO VRB20MPS 1000 TSRA SQ BKN010CB
Время наблюдения
2022-05-29T10:30:00Z
Температура C
12.0
Точка росы
12.0
Направление ветра
240
Скорость ветра (узлы)
17
Метео видимость
4.35
Облачность
SCT
Нижняя граница облачности (футы)
3600
Явления погоды
-TSRA
Условия полета
MVFR
Аэропорт подробнее: 
SCT – разбросанная отдельная облачность;
TSRA - гроза с дождём;